createdAt,value
2022-12-22T00:00:34.521Z,21.30
2022-12-22T00:03:20.513Z,22.70
2022-12-22T00:06:07.836Z,22.10
2022-12-22T00:08:53.642Z,21.20
2022-12-22T00:11:40.026Z,20.60
2022-12-22T00:14:27.531Z,20.63
2022-12-22T00:17:13.915Z,21.20
2022-12-22T00:19:59.984Z,20.07
2022-12-22T00:22:47.174Z,20.20
2022-12-22T00:25:34.581Z,20.13
2022-12-22T00:28:20.776Z,20.43
2022-12-22T00:31:07.145Z,21.30
2022-12-22T00:33:52.929Z,20.77
2022-12-22T00:36:39.369Z,20.10
2022-12-22T00:39:31.118Z,20.60
2022-12-22T00:42:17.083Z,20.30
2022-12-22T00:45:03.155Z,19.40
2022-12-22T00:47:49.675Z,20.73
2022-12-22T00:50:36.097Z,20.13
2022-12-22T00:53:22.970Z,20.77
2022-12-22T00:56:10.175Z,19.43
2022-12-22T00:58:56.158Z,21.37
2022-12-22T01:01:42.520Z,20.67
2022-12-22T01:04:29.066Z,20.80
2022-12-22T01:07:15.348Z,21.97
2022-12-22T01:10:05.284Z,21.33
2022-12-22T01:12:53.509Z,20.00
2022-12-22T01:15:39.583Z,19.83
2022-12-22T01:18:25.969Z,19.77
2022-12-22T01:21:12.480Z,20.80
2022-12-22T01:23:59.446Z,19.13
2022-12-22T01:26:45.713Z,18.97
2022-12-22T01:29:33.042Z,19.57
2022-12-22T01:32:19.111Z,22.50
2022-12-22T01:35:04.960Z,21.70
2022-12-22T01:37:50.748Z,18.20
2022-12-22T01:40:39.649Z,18.70
2022-12-22T01:43:37.570Z,19.63
2022-12-22T01:46:43.827Z,18.73
2022-12-22T01:49:32.637Z,18.17
2022-12-22T01:52:19.469Z,18.47
2022-12-22T01:55:05.871Z,17.97
2022-12-22T01:57:52.420Z,16.90
2022-12-22T02:00:38.726Z,17.27
2022-12-22T02:03:34.930Z,18.93
2022-12-22T02:06:36.269Z,17.50
2022-12-22T02:09:36.245Z,16.80
2022-12-22T02:12:29.263Z,18.80
2022-12-22T02:15:20.831Z,21.77
2022-12-22T02:18:13.278Z,19.53
2022-12-22T02:21:02.132Z,21.67
2022-12-22T02:24:04.098Z,17.93
2022-12-22T02:26:53.215Z,19.57
2022-12-22T02:29:41.700Z,17.87
2022-12-22T02:32:27.598Z,17.47
2022-12-22T02:35:13.337Z,15.67
2022-12-22T02:38:05.765Z,17.37
2022-12-22T02:40:57.556Z,16.40
2022-12-22T02:43:58.251Z,16.20
2022-12-22T02:46:47.747Z,16.60
2022-12-22T02:49:36.923Z,16.03
2022-12-22T02:52:27.713Z,15.97
2022-12-22T02:55:13.640Z,16.03
2022-12-22T02:57:59.831Z,15.50
2022-12-22T03:00:46.813Z,15.93
2022-12-22T03:03:33.009Z,15.43
2022-12-22T03:06:19.311Z,15.33
2022-12-22T03:09:05.234Z,15.60
2022-12-22T03:11:51.124Z,14.57
2022-12-22T03:14:36.999Z,16.27
2022-12-22T03:17:24.013Z,14.27
2022-12-22T03:20:10.039Z,14.57
2022-12-22T03:22:55.761Z,13.97
2022-12-22T03:25:41.778Z,13.83
2022-12-22T03:28:11.441Z,14.23
2022-12-22T03:30:40.055Z,13.80
2022-12-22T03:33:09.863Z,14.80
2022-12-22T03:35:38.378Z,13.00
2022-12-22T03:38:06.805Z,13.67
2022-12-22T03:40:35.238Z,13.50
2022-12-22T03:43:21.111Z,12.90
2022-12-22T03:46:12.203Z,13.83
2022-12-22T03:48:42.109Z,13.47
2022-12-22T03:51:11.016Z,14.17
2022-12-22T03:53:39.431Z,14.17
2022-12-22T03:56:08.611Z,13.97
2022-12-22T03:58:37.246Z,15.27
2022-12-22T04:01:06.711Z,14.30
2022-12-22T04:03:35.277Z,13.60
2022-12-22T04:06:05.300Z,12.40
2022-12-22T04:08:33.711Z,13.93
2022-12-22T04:11:19.592Z,12.93
2022-12-22T04:13:48.010Z,14.50
2022-12-22T04:16:16.531Z,14.47
2022-12-22T04:18:45.015Z,14.20
2022-12-22T04:21:14.845Z,13.97
2022-12-22T04:23:43.330Z,13.67
2022-12-22T04:26:11.782Z,13.17
2022-12-22T04:28:40.210Z,14.13
2022-12-22T04:31:08.669Z,13.73
2022-12-22T04:33:37.121Z,13.10
2022-12-22T04:36:06.346Z,13.77
2022-12-22T04:38:36.514Z,13.13
2022-12-22T04:41:05.277Z,13.33
2022-12-22T04:43:34.087Z,13.50
2022-12-22T04:46:02.605Z,13.87
2022-12-22T04:48:32.351Z,14.37
2022-12-22T04:51:01.815Z,14.13
2022-12-22T04:53:31.409Z,14.20
2022-12-22T04:56:02.296Z,14.97
2022-12-22T04:58:31.390Z,14.63
2022-12-22T05:01:09.668Z,15.10
2022-12-22T05:03:38.314Z,14.37
2022-12-22T05:06:07.493Z,14.90
2022-12-22T05:08:36.193Z,14.80
2022-12-22T05:11:06.389Z,14.50
2022-12-22T05:13:34.962Z,14.60
2022-12-22T05:16:07.305Z,14.90
2022-12-22T05:18:36.137Z,14.60
2022-12-22T05:21:07.154Z,14.40
2022-12-22T05:23:36.282Z,14.13
2022-12-22T05:26:06.689Z,14.30
2022-12-22T05:28:35.344Z,15.10
2022-12-22T05:31:05.249Z,14.00
2022-12-22T05:33:33.781Z,14.37
2022-12-22T05:36:02.802Z,12.93
2022-12-22T05:38:31.183Z,14.03
2022-12-22T05:41:03.819Z,13.47
2022-12-22T05:43:34.659Z,12.83
2022-12-22T05:46:04.072Z,13.77
2022-12-22T05:48:38.159Z,13.70
2022-12-22T05:51:08.431Z,14.57
2022-12-22T05:53:37.216Z,13.43
2022-12-22T05:56:06.262Z,16.60
2022-12-22T05:58:36.633Z,13.93
2022-12-22T06:01:05.797Z,14.90
2022-12-22T06:03:34.399Z,13.53
2022-12-22T06:06:03.615Z,14.67
2022-12-22T06:08:32.180Z,14.53
2022-12-22T06:11:01.009Z,15.87
2022-12-22T06:13:29.644Z,13.17
2022-12-22T06:15:59.535Z,13.30
2022-12-22T06:18:28.215Z,14.07
2022-12-22T06:20:56.583Z,14.60
2022-12-22T06:23:24.992Z,23.27
2022-12-22T06:25:57.211Z,14.23
2022-12-22T06:28:25.861Z,13.43
2022-12-22T06:30:54.643Z,12.67
2022-12-22T06:33:24.623Z,11.80
2022-12-22T06:35:58.723Z,14.20
2022-12-22T06:38:28.441Z,13.07
2022-12-22T06:40:57.382Z,12.37
2022-12-22T06:43:25.809Z,12.00
2022-12-22T06:45:54.359Z,13.03
2022-12-22T06:48:24.148Z,15.50
2022-12-22T06:50:52.625Z,13.73
2022-12-22T06:53:21.556Z,12.77
2022-12-22T06:55:50.051Z,13.43
2022-12-22T06:58:18.579Z,13.13
2022-12-22T07:00:48.575Z,12.90
2022-12-22T07:03:17.587Z,12.60
2022-12-22T07:05:47.431Z,14.00
2022-12-22T07:08:15.837Z,12.33
2022-12-22T07:10:59.279Z,11.60
2022-12-22T07:13:30.176Z,14.63
2022-12-22T07:16:01.102Z,12.37
2022-12-22T07:18:31.658Z,13.03
2022-12-22T07:21:03.403Z,13.07
2022-12-22T07:23:32.499Z,12.50
2022-12-22T07:26:01.018Z,12.30
2022-12-22T07:28:29.502Z,12.03
2022-12-22T07:30:58.141Z,12.00
2022-12-22T07:33:26.877Z,10.07
2022-12-22T07:36:07.792Z,9.47
2022-12-22T07:38:38.150Z,10.83
2022-12-22T07:41:27.925Z,9.20
2022-12-22T07:43:57.023Z,9.77
2022-12-22T07:46:28.685Z,8.87
2022-12-22T07:49:11.194Z,7.23
2022-12-22T07:51:42.291Z,6.53
2022-12-22T07:54:12.137Z,6.17
2022-12-22T07:56:41.869Z,6.00
2022-12-22T07:59:11.193Z,4.67
2022-12-22T08:01:40.275Z,4.20
2022-12-22T08:04:09.122Z,4.03
2022-12-22T08:06:37.759Z,4.13
2022-12-22T08:09:10.980Z,3.60
2022-12-22T08:11:40.216Z,3.40
2022-12-22T08:14:09.336Z,3.03
2022-12-22T08:16:38.264Z,3.17
2022-12-22T08:19:06.904Z,3.00
2022-12-22T08:21:35.342Z,3.30
2022-12-22T08:24:08.149Z,3.57
2022-12-22T08:26:39.166Z,3.30
2022-12-22T08:29:10.268Z,2.70
2022-12-22T08:31:39.917Z,3.03
2022-12-22T08:34:14.506Z,2.33
2022-12-22T08:36:45.470Z,2.00
2022-12-22T08:39:16.140Z,2.47
2022-12-22T08:41:53.670Z,2.30
2022-12-22T08:44:24.418Z,2.33
2022-12-22T08:46:54.408Z,2.40
2022-12-22T08:49:23.466Z,2.40
2022-12-22T08:51:52.191Z,2.67
2022-12-22T08:54:22.588Z,2.40
2022-12-22T08:56:51.387Z,2.10
2022-12-22T08:59:19.983Z,2.33
2022-12-22T09:01:51.201Z,2.47
2022-12-22T09:04:21.324Z,1.80
2022-12-22T09:06:52.589Z,2.23
2022-12-22T09:09:22.710Z,2.10
2022-12-22T09:11:51.807Z,1.87
2022-12-22T09:14:20.475Z,2.30
2022-12-22T09:16:50.465Z,2.47
2022-12-22T09:19:19.108Z,2.10
2022-12-22T09:21:47.620Z,2.07
2022-12-22T09:24:16.293Z,2.37
2022-12-22T09:26:46.086Z,1.93
2022-12-22T09:29:15.929Z,1.80
2022-12-22T09:31:44.916Z,1.93
2022-12-22T09:34:17.936Z,1.80
2022-12-22T09:36:47.855Z,1.97
2022-12-22T09:39:17.055Z,2.07
2022-12-22T09:41:49.458Z,2.20
2022-12-22T09:44:25.342Z,2.20
2022-12-22T09:46:54.666Z,2.50
2022-12-22T09:49:23.780Z,2.30
2022-12-22T09:51:54.007Z,2.27
2022-12-22T09:54:23.567Z,2.80
2022-12-22T09:56:53.416Z,2.70
2022-12-22T09:59:22.951Z,2.50
2022-12-22T10:02:01.472Z,2.20
2022-12-22T10:04:40.291Z,2.03
2022-12-22T10:07:18.319Z,2.27
2022-12-22T10:09:50.296Z,2.27
2022-12-22T10:12:23.017Z,2.00
2022-12-22T10:14:52.665Z,2.10
2022-12-22T10:17:24.363Z,2.53
2022-12-22T10:19:54.722Z,1.80
2022-12-22T10:22:32.211Z,2.30
2022-12-22T10:25:02.363Z,2.30
2022-12-22T10:27:38.582Z,1.80
2022-12-22T10:30:20.008Z,2.20
2022-12-22T10:33:03.931Z,2.50
2022-12-22T10:35:50.220Z,2.50
2022-12-22T10:38:22.848Z,2.03
2022-12-22T10:40:59.959Z,2.40
2022-12-22T10:43:34.353Z,1.90
2022-12-22T10:46:03.404Z,2.20
2022-12-22T10:48:34.205Z,2.73
2022-12-22T10:51:04.049Z,2.57
2022-12-22T10:53:44.878Z,2.03
2022-12-22T10:56:22.241Z,2.50
2022-12-22T10:58:54.320Z,2.20
2022-12-22T11:01:28.655Z,2.23
2022-12-22T11:03:57.877Z,2.27
2022-12-22T11:06:26.441Z,2.07
2022-12-22T11:09:05.629Z,2.20
2022-12-22T11:11:48.081Z,2.17
2022-12-22T11:14:26.920Z,2.00
2022-12-22T11:17:01.169Z,2.17
2022-12-22T11:19:42.628Z,2.90
2022-12-22T11:22:20.013Z,2.40
2022-12-22T11:24:58.552Z,2.40
2022-12-22T11:27:33.163Z,2.47
2022-12-22T11:30:08.525Z,2.50
2022-12-22T11:32:55.994Z,2.07
2022-12-22T11:35:38.084Z,2.20
2022-12-22T11:38:14.378Z,1.93
2022-12-22T11:40:45.689Z,2.50
2022-12-22T11:43:24.501Z,2.63
2022-12-22T11:46:32.879Z,1.93
2022-12-22T11:49:34.088Z,2.40
2022-12-22T11:52:14.862Z,2.23
2022-12-22T11:55:18.917Z,2.23
2022-12-22T11:57:58.999Z,1.93
2022-12-22T12:01:03.733Z,1.77
2022-12-22T12:03:44.984Z,1.77
2022-12-22T12:06:28.618Z,2.30
2022-12-22T12:09:08.725Z,2.00
2022-12-22T12:11:41.128Z,2.20
2022-12-22T12:14:20.055Z,2.23
2022-12-22T12:16:53.574Z,2.10
2022-12-22T12:19:36.462Z,2.30
2022-12-22T12:22:06.532Z,1.90
2022-12-22T12:24:42.288Z,2.47
2022-12-22T12:27:23.001Z,1.40
2022-12-22T12:30:36.505Z,2.30
2022-12-22T12:32:54.565Z,1.97
2022-12-22T12:35:46.814Z,1.93
2022-12-22T12:38:47.887Z,1.83
2022-12-22T12:41:13.989Z,2.17
2022-12-22T12:43:43.179Z,2.57
2022-12-22T12:46:45.487Z,2.37
2022-12-22T12:49:51.525Z,2.07
2022-12-22T12:53:15.219Z,2.50
2022-12-22T12:55:58.452Z,2.13
2022-12-22T12:58:55.606Z,2.27
2022-12-22T13:01:58.328Z,2.80
2022-12-22T13:05:12.516Z,2.90
2022-12-22T13:08:11.402Z,2.07
2022-12-22T13:10:43.385Z,1.97
2022-12-22T13:13:13.751Z,2.30
2022-12-22T13:15:45.147Z,2.97
2022-12-22T13:18:44.335Z,2.60
2022-12-22T13:24:25.982Z,2.20
2022-12-22T13:26:56.305Z,2.67
2022-12-22T13:29:29.182Z,2.90
2022-12-22T13:32:01.715Z,2.57
2022-12-22T13:34:57.656Z,3.23
2022-12-22T13:37:29.715Z,3.10
2022-12-22T13:40:30.851Z,2.50
2022-12-22T13:43:02.591Z,3.00
2022-12-22T13:45:34.908Z,3.57
2022-12-22T13:48:07.735Z,2.80
2022-12-22T13:50:38.743Z,2.63
2022-12-22T13:53:09.414Z,2.73
2022-12-22T13:55:39.399Z,2.87
2022-12-22T13:58:17.904Z,3.13
2022-12-22T14:00:46.331Z,2.77
2022-12-22T14:03:41.581Z,2.77
2022-12-22T14:06:20.783Z,3.50
2022-12-22T14:08:49.257Z,2.40
2022-12-22T14:11:19.749Z,2.97
2022-12-22T14:13:48.324Z,2.30
2022-12-22T14:16:17.057Z,2.70
2022-12-22T14:18:46.561Z,3.13
2022-12-22T14:21:15.030Z,3.10
2022-12-22T14:23:44.152Z,2.70
2022-12-22T14:26:18.405Z,3.10
2022-12-22T14:28:50.931Z,2.73
2022-12-22T14:31:20.265Z,2.60
2022-12-22T14:33:53.257Z,3.20
2022-12-22T14:36:24.340Z,2.70
2022-12-22T14:38:54.663Z,3.37
2022-12-22T14:41:44.319Z,3.17
2022-12-22T14:44:16.426Z,3.10
2022-12-22T14:46:45.712Z,3.43
2022-12-22T14:49:19.541Z,3.23
2022-12-22T14:52:00.764Z,3.10
2022-12-22T14:54:30.085Z,3.20
2022-12-22T14:57:03.264Z,3.03
2022-12-22T14:59:35.263Z,2.93
2022-12-22T15:02:19.181Z,2.87
2022-12-22T15:04:47.763Z,3.20
2022-12-22T15:07:54.340Z,3.00
2022-12-22T15:10:17.274Z,3.43
2022-12-22T15:12:46.461Z,3.53
2022-12-22T15:15:19.355Z,2.80
2022-12-22T15:17:50.942Z,3.93
2022-12-22T15:20:21.902Z,3.87
2022-12-22T15:22:50.857Z,4.17
2022-12-22T15:25:21.222Z,3.17
2022-12-22T15:27:50.495Z,3.67
2022-12-22T15:30:28.509Z,3.70
2022-12-22T15:32:57.544Z,3.80
2022-12-22T15:35:29.551Z,4.10
2022-12-22T15:37:58.108Z,3.40
2022-12-22T15:40:27.424Z,3.23
2022-12-22T15:42:56.101Z,4.27
2022-12-22T15:45:26.029Z,3.90
2022-12-22T15:47:55.528Z,5.10
2022-12-22T15:50:26.352Z,4.13
2022-12-22T15:52:56.669Z,3.40
2022-12-22T15:55:25.672Z,3.60
2022-12-22T15:57:57.819Z,4.30
2022-12-22T16:00:27.719Z,3.67
2022-12-22T16:02:57.619Z,4.20
2022-12-22T16:05:26.254Z,3.43
2022-12-22T16:07:54.633Z,3.77
2022-12-22T16:10:26.764Z,3.77
2022-12-22T16:13:00.545Z,3.13
2022-12-22T16:15:32.018Z,3.43
2022-12-22T16:18:01.330Z,3.50
2022-12-22T16:21:27.159Z,3.50
2022-12-22T16:23:55.671Z,3.60
2022-12-22T16:26:24.146Z,2.67
2022-12-22T16:28:52.730Z,3.47
2022-12-22T16:31:24.253Z,3.30
2022-12-22T16:33:53.067Z,3.50
2022-12-22T16:36:21.642Z,3.60
2022-12-22T16:38:50.056Z,3.80
2022-12-22T16:41:24.262Z,3.73
2022-12-22T16:43:53.582Z,3.87
2022-12-22T16:46:24.097Z,4.13
2022-12-22T16:48:54.371Z,4.80
2022-12-22T16:51:25.506Z,4.23
2022-12-22T16:53:54.172Z,2.83
2022-12-22T16:56:24.879Z,3.20
2022-12-22T16:58:53.455Z,3.10
2022-12-22T17:01:31.249Z,3.40
2022-12-22T17:04:03.569Z,3.10
2022-12-22T17:06:32.529Z,3.00
2022-12-22T17:09:01.234Z,2.90
2022-12-22T17:11:31.577Z,2.80
2022-12-22T17:14:18.501Z,3.00
2022-12-22T17:16:48.289Z,2.70
2022-12-22T17:19:17.053Z,2.60
2022-12-22T17:21:45.626Z,3.00
2022-12-22T17:24:15.231Z,2.87
2022-12-22T17:26:43.704Z,2.93
2022-12-22T17:29:15.699Z,3.03
2022-12-22T17:31:44.473Z,3.40
2022-12-22T17:34:18.684Z,3.10
2022-12-22T17:36:48.868Z,4.27
2022-12-22T17:39:19.671Z,3.93
2022-12-22T17:41:55.908Z,3.77
2022-12-22T17:44:26.897Z,3.27
2022-12-22T17:46:55.509Z,3.87
2022-12-22T17:49:25.818Z,3.77
2022-12-22T17:51:54.297Z,4.00
2022-12-22T17:54:24.995Z,4.20
2022-12-22T17:56:56.060Z,4.20
2022-12-22T17:59:24.926Z,3.73
2022-12-22T18:01:53.511Z,4.30
2022-12-22T18:04:22.060Z,4.43
2022-12-22T18:06:51.940Z,4.30
2022-12-22T18:09:22.928Z,4.97
2022-12-22T18:11:51.736Z,4.80
2022-12-22T18:14:22.062Z,5.20
2022-12-22T18:16:53.721Z,5.47
2022-12-22T18:19:22.194Z,4.50
2022-12-22T18:21:52.030Z,4.77
2022-12-22T18:24:21.058Z,3.93
2022-12-22T18:26:49.519Z,3.80
2022-12-22T18:29:18.606Z,3.67
2022-12-22T18:31:47.262Z,4.50
2022-12-22T18:34:15.676Z,4.60
2022-12-22T18:36:45.704Z,3.80
2022-12-22T18:39:18.924Z,4.40
2022-12-22T18:41:47.686Z,4.60
2022-12-22T18:44:16.860Z,4.77
2022-12-22T18:46:45.636Z,4.83
2022-12-22T18:49:14.322Z,4.30
2022-12-22T18:51:43.816Z,4.47
2022-12-22T18:54:23.426Z,4.30
2022-12-22T18:56:52.500Z,3.87
2022-12-22T18:59:25.875Z,3.87
2022-12-22T19:01:58.037Z,4.03
2022-12-22T19:04:26.699Z,3.57
2022-12-22T19:06:55.266Z,4.10
2022-12-22T19:09:27.006Z,5.47
2022-12-22T19:11:55.584Z,4.70
2022-12-22T19:14:24.041Z,4.53
2022-12-22T19:16:52.530Z,4.50
2022-12-22T19:19:22.014Z,4.20
2022-12-22T19:21:50.559Z,4.70
2022-12-22T19:24:18.968Z,5.17
2022-12-22T19:26:48.750Z,5.13
2022-12-22T19:29:18.412Z,4.00
2022-12-22T19:31:46.956Z,4.10
2022-12-22T19:34:18.495Z,3.70
2022-12-22T19:36:47.424Z,3.53
2022-12-22T19:39:18.528Z,3.33
2022-12-22T19:41:50.392Z,3.70
2022-12-22T19:44:22.167Z,4.67
2022-12-22T19:46:50.873Z,4.67
2022-12-22T19:49:21.201Z,4.20
2022-12-22T19:51:51.055Z,4.37
2022-12-22T19:54:20.339Z,4.87
2022-12-22T19:56:53.500Z,4.53
2022-12-22T19:59:29.521Z,4.20
2022-12-22T20:01:58.615Z,4.67
2022-12-22T20:04:27.429Z,4.47
2022-12-22T20:06:55.950Z,4.00
2022-12-22T20:09:24.425Z,3.63
2022-12-22T20:11:54.219Z,4.10
2022-12-22T20:14:22.639Z,3.97
2022-12-22T20:16:51.127Z,3.97
2022-12-22T20:19:22.536Z,3.67
2022-12-22T20:21:51.307Z,3.80
2022-12-22T20:24:22.777Z,3.63
2022-12-22T20:26:54.424Z,4.23
2022-12-22T20:29:26.047Z,3.37
2022-12-22T20:31:54.640Z,3.57
2022-12-22T20:34:23.133Z,4.00
2022-12-22T20:36:51.603Z,3.90
2022-12-22T20:39:20.600Z,4.63
2022-12-22T20:41:53.319Z,5.10
2022-12-22T20:44:23.318Z,5.10
2022-12-22T20:46:53.217Z,5.27
2022-12-22T20:49:21.701Z,7.97
2022-12-22T20:51:50.179Z,7.07
2022-12-22T20:54:18.659Z,6.00
2022-12-22T20:56:47.145Z,7.23
2022-12-22T20:59:18.648Z,19.27
2022-12-22T21:01:47.997Z,7.50
2022-12-22T21:04:18.823Z,8.57
2022-12-22T21:06:51.006Z,8.17
2022-12-22T21:09:20.209Z,12.67
2022-12-22T21:11:49.190Z,9.30
2022-12-22T21:14:17.992Z,8.33
2022-12-22T21:16:46.574Z,7.57
2022-12-22T21:19:19.467Z,8.10
2022-12-22T21:21:48.238Z,9.63
2022-12-22T21:24:18.669Z,7.73
2022-12-22T21:26:49.043Z,7.97
2022-12-22T21:29:20.409Z,7.77
2022-12-22T21:31:48.885Z,10.23
2022-12-22T21:34:20.487Z,9.83
2022-12-22T21:36:51.752Z,9.00
2022-12-22T21:39:30.165Z,8.00
2022-12-22T21:42:01.535Z,8.50
2022-12-22T21:44:30.489Z,7.93
2022-12-22T21:46:59.603Z,9.07
2022-12-22T21:49:30.684Z,9.00
2022-12-22T21:51:59.338Z,9.27
2022-12-22T21:54:28.258Z,7.17
2022-12-22T21:56:57.397Z,7.93
2022-12-22T21:59:25.812Z,8.63
2022-12-22T22:01:54.490Z,8.23
2022-12-22T22:04:23.790Z,7.97
2022-12-22T22:06:53.702Z,7.70
2022-12-22T22:09:22.393Z,7.63
2022-12-22T22:12:08.446Z,8.13
2022-12-22T22:14:37.055Z,7.70
2022-12-22T22:17:05.459Z,8.27
2022-12-22T22:19:34.105Z,9.47
2022-12-22T22:22:03.862Z,8.90
2022-12-22T22:24:32.526Z,9.57
2022-12-22T22:27:00.989Z,10.53
2022-12-22T22:29:29.506Z,11.80
2022-12-22T22:31:57.948Z,8.77
2022-12-22T22:34:26.348Z,11.00
2022-12-22T22:36:54.865Z,8.20
2022-12-22T22:39:25.245Z,8.30
2022-12-22T22:41:53.736Z,6.73
2022-12-22T22:44:22.440Z,8.43
2022-12-22T22:46:50.990Z,7.33
2022-12-22T22:49:24.385Z,6.27
2022-12-22T22:51:58.634Z,5.30
2022-12-22T22:54:28.820Z,4.80
2022-12-22T22:56:57.336Z,5.40
2022-12-22T22:59:25.787Z,3.97
2022-12-22T23:01:54.190Z,4.37
2022-12-22T23:04:23.194Z,3.90
2022-12-22T23:06:52.155Z,4.53
2022-12-22T23:09:23.552Z,4.50
2022-12-22T23:11:53.927Z,4.30
2022-12-22T23:14:23.108Z,4.23
2022-12-22T23:16:51.869Z,4.10
2022-12-22T23:19:21.081Z,3.70
2022-12-22T23:21:49.909Z,3.47
2022-12-22T23:24:20.645Z,3.70
2022-12-22T23:26:49.439Z,3.40
2022-12-22T23:29:19.774Z,3.50
2022-12-22T23:31:48.695Z,3.80
2022-12-22T23:37:04.675Z,4.40
2022-12-22T23:39:33.487Z,4.50
2022-12-22T23:42:02.169Z,4.10
2022-12-22T23:44:31.072Z,3.90
2022-12-22T23:47:00.107Z,3.57
2022-12-22T23:49:28.852Z,3.77
2022-12-22T23:51:57.320Z,3.03
2022-12-22T23:54:29.468Z,3.20
2022-12-22T23:56:58.021Z,3.57
2022-12-22T23:59:26.458Z,3.30
